Home > Products > Valid Products > TAF

000
FTUS41 KAKQ 301700 CCA
TAFECG
TAF COR
KECG 301730Z 3018/3118 13010KT P6SM VCSH SCT025
      TEMPO 3018/3020 BKN025
     FM302000 15008KT P6SM SCT030
     FM310000 18004KT P6SM BKN250
      TEMPO 3107/3111 4SM BR
     FM311200 23008KT P6SM SCT250=



000
FTUS41 KAKQ 301700
TAFPHF
TAF
KPHF 301720Z 3018/3118 18008KT P6SM SCT030 BKN045
     FM310000 19005KT P6SM BKN250
     FM310900 23005KT 5SM BR SCT250
     FM311300 24010KT P6SM SCT250=



000
FTUS41 KAKQ 301700
TAFECG
TAF
KECG 301720Z 3018/3118 13010KT P6SM SCT025
     FM310000 18004KT P6SM BKN250
      TEMPO 3107/3111 4SM BR
     FM311200 23008KT P6SM SCT250=



000
FTUS41 KAKQ 301700
TAFSBY
TAF
KSBY 301720Z 3018/3118 16008KT P6SM BKN040
     FM310000 18004KT P6SM BKN250
     FM310500 18003KT 3SM BR BKN250
      TEMPO 3107/3111 1SM BR BKN003
     FM311200 22006KT 4SM BR SCT010 BKN250
     FM311500 24008KT 5SM HZ BKN250=



000
FTUS41 KAKQ 301700
TAFRIC
TAF
KRIC 301720Z 3018/3118 17008KT P6SM BKN025
     FM302100 18007KT P6SM SCT030
     FM310000 19005KT P6SM BKN250
     FM310800 20004KT 4SM BR BKN250
     FM311300 21011KT P6SM SCT030 BKN250=



000
FTUS41 KAKQ 301700
TAFORF
TAF
KORF 301720Z 3018/3118 16010KT P6SM BKN025
     FM302000 18008KT P6SM SCT030
     FM310000 19006KT P6SM BKN250
     FM310900 23006KT P6SM SCT250
     FM311300 24011KT P6SM SCT250=



000
FTUS41 KAKQ 301600 AAA
TAFRIC
TAF AMD
KRIC 301602Z 3016/3112 16009KT P6SM BKN025 OVC100
     FM301700 17010KT P6SM SCT035
     FM310000 19005KT P6SM BKN250=



000
FTUS41 KAKQ 301600 AAB
TAFPHF
TAF AMD
KPHF 301601Z 3016/3112 13005KT P6SM SCT025 BKN045
      TEMPO 3016/3017 BKN025
     FM301730 14008KT P6SM SCT040
     FM310000 17005KT P6SM BKN250=



000
FTUS41 KAKQ 301400 AAA
TAFORF
TAF AMD
KORF 301425Z 3014/3112 14006KT P6SM SCT025 OVC080
      TEMPO 3014/3016 BKN025
     FM301600 14008KT P6SM SCT040
     FM310000 18006KT P6SM BKN250=



000
FTUS41 KAKQ 301400 AAA
TAFPHF
TAF AMD
KPHF 301410Z 3014/3112 13005KT P6SM SCT025 BKN045
      TEMPO 3014/3016 BKN025
     FM301600 14008KT P6SM SCT035
     FM310000 17005KT P6SM BKN250=



000
FTUS41 KAKQ 301100
TAFRIC
TAF
KRIC 301128Z 3012/3112 14005KT P6SM BKN025 OVC060
     FM301500 17008KT P6SM SCT035
     FM310000 19005KT P6SM BKN250=



000
FTUS41 KAKQ 301100
TAFECG
TAF
KECG 301128Z 3012/3112 09005KT P6SM BKN050
     FM301400 12008KT P6SM SCT040
     FM310000 16005KT P6SM BKN250=



000
FTUS41 KAKQ 301100
TAFPHF
TAF
KPHF 301128Z 3012/3112 13005KT P6SM SCT025 BKN045
     FM301500 14008KT P6SM SCT035
     FM310000 17005KT P6SM BKN250=



000
FTUS41 KAKQ 301100
TAFSBY
TAF
KSBY 301128Z 3012/3112 15004KT P6SM BKN040
     FM301600 17008KT P6SM SCT050
     FM310000 18004KT P6SM BKN250=



000
FTUS41 KAKQ 301100
TAFORF
TAF
KORF 301128Z 3012/3112 12004KT P6SM SCT025 OVC080
     FM301500 14008KT P6SM SCT040
     FM310000 18006KT P6SM BKN250=



000
FTUS41 KAKQ 301000 AAA
TAFPHF
TAF AMD
KPHF 301014Z 3010/3106 VRB03KT P6SM BKN025 OVC050
     FM301200 13005KT P6SM SCT025 BKN050
     FM301500 14008KT P6SM SCT040
     FM310000 15005KT P6SM BKN250=



000
FTUS41 KAKQ 301000 AAA
TAFSBY
TAF AMD
KSBY 301002Z 3010/3106 00000KT P6SM BKN050
     FM301200 17008KT P6SM BKN040
     FM310000 18004KT P6SM BKN250=



000
FTUS41 KAKQ 300900 AAA
TAFRIC
TAF AMD
KRIC 300952Z 3010/3106 VRB02KT P6SM BKN025 OVC050
     FM301200 16005KT P6SM SCT025 BKN050
     FM301400 18008KT P6SM SCT040
     FM310000 16005KT P6SM BKN250=



000
FTUS41 KAKQ 300500
TAFRIC
TAF
KRIC 300533Z 3006/3106 10003KT P6SM SCT030 BKN050
     FM301100 13003KT P6SM BKN025
     FM301400 18008KT P6SM SCT040
     FM310000 16005KT P6SM BKN250=



000
FTUS41 KAKQ 300500
TAFPHF
TAF
KPHF 300533Z 3006/3106 VRB03KT P6SM SCT030 BKN050
     FM301200 13005KT P6SM SCT030 BKN050
     FM301500 14008KT P6SM SCT040
     FM310000 15005KT P6SM BKN250=



000
FTUS41 KAKQ 300500
TAFORF
TAF
KORF 300533Z 3006/3106 11004KT P6SM BKN050
     FM301400 12008KT P6SM SCT040
     FM310000 18006KT P6SM BKN250=



000
FTUS41 KAKQ 300500
TAFSBY
TAF
KSBY 300533Z 3006/3106 00000KT P6SM SCT050
     FM301000 00000KT 5SM BR BKN040
     FM301200 17008KT P6SM BKN040
     FM310000 18004KT P6SM BKN250=



000
FTUS41 KAKQ 300500
TAFECG
TAF
KECG 300533Z 3006/3106 08005KT P6SM SCT025 BKN050
     FM301400 12008KT P6SM SCT040
     FM310000 15005KT P6SM BKN250=



000
FTUS41 KAKQ 300300 AAA
TAFECG
TAF AMD
KECG 300332Z 3004/3024 09005KT P6SM BKN025 OVC035
     FM300800 07003KT P6SM SCT012 BKN025
     FM301400 13007KT P6SM SCT040=



000
FTUS41 KAKQ 292300
TAFECG
TAF
KECG 292325Z 3000/3024 07009KT P6SM BKN050
     FM300200 09005KT P6SM SCT050
     FM300800 07003KT P6SM SCT012 BKN025
     FM301400 13007KT P6SM SCT040=



000
FTUS41 KAKQ 292300
TAFRIC
TAF
KRIC 292325Z 3000/3024 11005KT P6SM SCT050 BKN150
     FM300500 13003KT P6SM BKN025
     FM301600 18008KT P6SM SCT040=



000
FTUS41 KAKQ 292300
TAFPHF
TAF
KPHF 292325Z 3000/3024 10005KT P6SM BKN050
     FM300700 13003KT P6SM BKN025 OVC050
     FM301500 13007KT P6SM SCT040=



000
FTUS41 KAKQ 292300
TAFSBY
TAF
KSBY 292325Z 3000/3024 10005KT P6SM SKC
     FM300700 VRB03KT 4SM BR BKN030
     FM301100 16005KT P6SM SCT040=



000
FTUS41 KAKQ 292300
TAFORF
TAF
KORF 292325Z 3000/3024 10007KT P6SM BKN050
     FM300600 10005KT P6SM BKN030
     FM301300 14007KT P6SM SCT040=



000
FTUS41 KAKQ 291700
TAFECG
TAF
KECG 291739Z 2918/3018 07009KT P6SM BKN050
     FM300200 09005KT P6SM SCT050
     FM300800 07003KT P6SM SCT012 BKN025=



000
FTUS41 KAKQ 291700
TAFPHF
TAF
KPHF 291739Z 2918/3018 07009KT P6SM FEW050
     FM300000 10005KT P6SM BKN050
     FM300700 13003KT P6SM SCT025 OVC050=



000
FTUS41 KAKQ 291700
TAFRIC
TAF
KRIC 291739Z 2918/3018 05007KT P6SM FEW050
     FM292200 10005KT P6SM SCT050 BKN150
     FM300700 13003KT P6SM BKN025=



000
FTUS41 KAKQ 291700
TAFSBY
TAF
KSBY 291739Z 2918/3018 VRB05KT P6SM SKC
     FM300000 12005KT P6SM SKC
     FM300700 VRB03KT 4SM BR SKC=



000
FTUS41 KAKQ 291700
TAFORF
TAF
KORF 291739Z 2918/3018 07011KT P6SM SKC
     FM292200 08007KT P6SM BKN050
     FM300400 10005KT P6SM BKN035=



000
FTUS41 KAKQ 291400 AAA
TAFPHF
TAF AMD
KPHF 291412Z 2914/3012 08007KT P6SM SCT050
     FM300200 10005KT P6SM BKN050
     FM300700 13004KT P6SM BKN025=



000
FTUS41 KAKQ 291100
TAFPHF
TAF
KPHF 291137Z 2912/3012 05005KT P6SM SCT050
      TEMPO 2912/2915 BKN050
     FM291700 08007KT P6SM SCT045 SCT080
     FM300200 10005KT P6SM BKN050
     FM300700 13004KT P6SM BKN025=



000
FTUS41 KAKQ 291100
TAFORF
TAF
KORF 291137Z 2912/3012 08006KT P6SM BKN050
     FM291700 06010KT P6SM SCT050
     FM292200 08008KT P6SM BKN050
     FM300300 10006KT P6SM BKN030=



000
FTUS41 KAKQ 291100
TAFRIC
TAF
KRIC 291137Z 2912/3012 03005KT P6SM BKN050
     FM291600 07007KT P6SM SCT050
     FM292200 10006KT P6SM BKN050
     FM300700 13003KT P6SM BKN025=



000
FTUS41 KAKQ 291100
TAFECG
TAF
KECG 291137Z 2912/3012 04007KT P6SM BKN050
     FM291900 07009KT P6SM SCT040
     FM300200 09004KT P6SM BKN035
     FM300800 07003KT P6SM BKN025=



000
FTUS41 KAKQ 291100
TAFSBY
TAF
KSBY 291137Z 2912/3012 VRB03KT P6SM SKC
     FM291700 03005KT P6SM SCT040
     FM300000 12003KT P6SM SKC
     FM300700 VRB03KT 4SM BR SKC=



000
FTUS41 KAKQ 290500 RRA
TAFECG
TAF
KECG 290547Z 2906/3006 VRB03KT P6SM SCT035
     FM290900 04006KT P6SM BKN050 BKN120
     FM291600 07009KT P6SM SCT040
     FM292100 08009KT P6SM BKN040
     FM300200 09004KT P6SM BKN035=



000
FTUS41 KAKQ 290500
TAFRIC
TAF
KRIC 290540Z 2906/3006 03005KT P6SM SCT060
     FM291600 07007KT P6SM SCT050
     FM292200 10006KT P6SM BKN070=



000
FTUS41 KAKQ 290500
TAFORF
TAF
KORF 290540Z 2906/3006 06005KT P6SM BKN050 BKN150
     FM291400 05010KT P6SM SCT060
     FM291900 06010KT P6SM SCT050 BKN080
     FM300100 10006KT P6SM BKN040=



000
FTUS41 KAKQ 290500
TAFPHF
TAF
KPHF 290540Z 2906/3006 05005KT P6SM SCT050 BKN080
     FM291100 05004KT P6SM SCT050
     FM291700 07007KT P6SM SCT045 SCT080
     FM300100 10005KT P6SM BKN060=



000
FTUS41 KAKQ 290500
TAFSBY
TAF
KSBY 290540Z 2906/3006 00000KT P6SM SKC
     FM291700 04006KT P6SM SCT050
     FM300000 12003KT P6SM SKC=



000
FTUS41 KAKQ 282300
TAFRIC
TAF
KRIC 282329Z 2900/2924 03005KT P6SM SCT060
     FM290300 06003KT P6SM SCT050
     FM291800 09007KT P6SM SCT060=



000
FTUS41 KAKQ 282300
TAFECG
TAF
KECG 282329Z 2900/2924 11005KT P6SM SCT050
     FM290900 05007KT 4SM BR BKN040
     FM291400 07008KT P6SM SCT050=



000
FTUS41 KAKQ 282300
TAFPHF
TAF
KPHF 282329Z 2900/2924 04005KT P6SM SKC
     FM290400 05005KT P6SM SCT040
     FM291500 08008KT P6SM SCT050=



000
FTUS41 KAKQ 282300
TAFORF
TAF
KORF 282329Z 2900/2924 05005KT P6SM SKC
     FM290500 04007KT P6SM BKN040
     FM291400 07008KT P6SM SCT040=



000
FTUS41 KAKQ 282300
TAFSBY
TAF
KSBY 282329Z 2900/2924 36003KT P6SM SKC
     FM291400 06008KT P6SM SCT050=



000
FTUS41 KAKQ 281700
TAFSBY
TAF
KSBY 281731Z 2818/2918 33011KT P6SM SCT040
     FM290000 VRB03KT P6SM SKC=



000
FTUS41 KAKQ 281700
TAFPHF
TAF
KPHF 281731Z 2818/2918 36009KT P6SM SCT040
     FM282200 04007KT P6SM SKC
     FM290400 05005KT P6SM SCT040=



000
FTUS41 KAKQ 281700
TAFECG
TAF
KECG 281731Z 2818/2918 33009KT P6SM SCT050
     FM290900 05007KT 4SM BR BKN040=



000
FTUS41 KAKQ 281700
TAFORF
TAF
KORF 281731Z 2818/2918 04008KT P6SM SCT040
     FM290000 07005KT P6SM SKC
     FM290500 04007KT P6SM BKN040=



000
FTUS41 KAKQ 281700
TAFRIC
TAF
KRIC 281731Z 2818/2918 01007KT P6SM SCT040
     FM282300 03005KT P6SM SKC
     FM290300 06003KT P6SM SCT050=



000
FTUS41 KAKQ 281300 AAA
TAFORF
TAF AMD
KORF 281354Z 2814/2912 01012KT P6SM SCT060
     FM281700 04008KT P6SM SCT040
     FM290000 07003KT P6SM SKC=



000
FTUS41 KAKQ 281100
TAFECG
TAF
KECG 281134Z 2812/2912 29004KT P6SM BKN060
      TEMPO 2812/2813 4SM HZ
     FM281500 33009KT P6SM SCT050
     FM282000 05007KT P6SM SCT250=



000
FTUS41 KAKQ 281100
TAFORF
TAF
KORF 281134Z 2812/2912 30007KT P6SM SCT060
     FM281400 01012KT P6SM SCT060
     FM281700 04008KT P6SM SCT040
     FM290000 07003KT P6SM SKC=



000
FTUS41 KAKQ 281100
TAFSBY
TAF
KSBY 281134Z 2812/2912 32004KT P6SM SCT070
      TEMPO 2812/2813 4SM BR
     FM281400 34009KT P6SM SCT070
     FM281800 32010KT P6SM SCT040
     FM290000 VRB03KT P6SM SKC=



000
FTUS41 KAKQ 281100
TAFPHF
TAF
KPHF 281134Z 2812/2912 33007KT P6SM SCT060
     FM281700 36008KT P6SM SCT040
     FM290000 06004KT P6SM SKC=



000
FTUS41 KAKQ 281100
TAFRIC
TAF
KRIC 281134Z 2812/2912 35008KT P6SM BKN250
     FM281600 01006KT P6SM SCT040
     FM290000 05004KT P6SM SCT250=



000
FTUS41 KAKQ 281000 AAA
TAFECG
TAF AMD
KECG 281032Z 2811/2906 25004KT 4SM HZ SCT070
     FM281200 29004KT P6SM BKN070
     FM281500 33009KT P6SM SCT050
     FM282000 05007KT P6SM SCT250=



000
FTUS41 KAKQ 280500
TAFECG
TAF
KECG 280540Z 2806/2906 28004KT P6SM SKC
     FM281300 33007KT P6SM SCT050
     FM282000 05007KT P6SM SCT250=



000
FTUS41 KAKQ 280500
TAFPHF
TAF
KPHF 280540Z 2806/2906 00000KT P6SM SCT250
     FM280900 28004KT P6SM BKN060
     FM281200 34007KT P6SM SCT060
     FM281700 36008KT P6SM SCT040
     FM290000 06004KT P6SM SKC=



000
FTUS41 KAKQ 280500
TAFSBY
TAF
KSBY 280540Z 2806/2906 00000KT P6SM SCT250
     FM280800 32004KT P6SM SCT070
     FM281400 34009KT P6SM SCT070
     FM281800 32010KT P6SM SCT040
     FM290000 VRB03KT P6SM SKC=



000
FTUS41 KAKQ 280500
TAFRIC
TAF
KRIC 280540Z 2806/2906 25004KT P6SM BKN070
     FM281000 35008KT P6SM SCT070
     FM281800 01006KT P6SM SCT040
     FM290000 05004KT P6SM SCT250=



000
FTUS41 KAKQ 280500
TAFORF
TAF
KORF 280540Z 2806/2906 24004KT P6SM SCT250
     FM281000 25005KT P6SM SCT060
     FM281400 01012KT P6SM SCT060
     FM281700 04008KT P6SM SCT040
     FM290000 07003KT P6SM SKC=



000
FTUS41 KAKQ 280300 AAA
TAFSBY
TAF AMD
KSBY 280318Z 2803/2824 00000KT P6SM SKC
     FM280800 VRB04KT 4SM BR SCT070
     FM281400 34009KT P6SM SCT070=



000
FTUS41 KAKQ 272300
TAFECG
TAF
KECG 272320Z 2800/2824 VRB04KT P6SM SKC
     FM281300 29007KT P6SM SCT060
     FM281900 06008KT P6SM BKN060=



000
FTUS41 KAKQ 272300
TAFSBY
TAF
KSBY 272320Z 2800/2824 VRB03KT P6SM SKC
     FM280400 00000KT 2SM BR SKC
      TEMPO 2805/2807 1/2SM FG VV002
     FM280700 VRB04KT 2SM BR BKN070
     FM281200 34011KT P6SM SCT070=



000
FTUS41 KAKQ 272300
TAFORF
TAF
KORF 272320Z 2800/2824 VRB04KT P6SM SKC
     FM281000 25005KT P6SM BKN060
     FM281400 01012KT P6SM SCT060
     FM281700 04008KT P6SM SCT250=



000
FTUS41 KAKQ 272300
TAFRIC
TAF
KRIC 272320Z 2800/2824 VRB03KT P6SM SKC
     FM280600 25004KT P6SM BKN070
     FM281000 35008KT P6SM SCT070=



000
FTUS41 KAKQ 272300
TAFPHF
TAF
KPHF 272320Z 2800/2824 VRB03KT P6SM SKC
     FM280900 25004KT P6SM BKN060
     FM281300 35007KT P6SM FEW040
     FM281900 03007KT P6SM SCT250=



    US Dept of Commerce
    National Oceanic and Atmospheric Administration
    National Weather Service
    1325 East West Highway
    Silver Spring, MD 20910
    Page Author: NWS Internet Services Team
Disclaimer
Information Quality
Credits
Glossary
Privacy Policy
Freedom of Information Act (FOIA)
About Us
Career Opportunities